Aviation Digital Data Service (ADDS)

Output produced by METARs form (2054 UTC 17 November 2019)
found at http://www.aviationweather.gov/metar/data/
 
METAR text: VEAT 171430Z 00000KT 4500 BR FEW020 23/21 Q1013 NOSIG
Conditions at: VEAT (AGARTALA , IN) observed 1430 UTC 17 November 2019
Temperature: 23.0°C (73°F)
Dewpoint: 21.0°C (70°F) [RH = 89%]
Pressure (altimeter): 29.91 inches Hg (1013.0 mb)
Winds: calm
Visibility: 2.80 miles (4.51 km)
Ceiling: at least 12,000 feet AGL
Clouds: few clouds at 2000 feet AGL
Weather: BR  (mist)

METAR text: VEAT 171400Z 00000KT 5000 BR FEW020 23/21 Q1013 NOSIG
Conditions at: VEAT (AGARTALA , IN) observed 1400 UTC 17 November 2019
Temperature: 23.0°C (73°F)
Dewpoint: 21.0°C (70°F) [RH = 89%]
Pressure (altimeter): 29.91 inches Hg (1013.0 mb)
Winds: calm
Visibility: 3 miles ( 5 km)
Ceiling: at least 12,000 feet AGL
Clouds: few clouds at 2000 feet AGL
Weather: BR  (mist)

METAR text: VEAT 171330Z 00000KT 5000 BR FEW020 24/22 Q1013 NOSIG
Conditions at: VEAT (AGARTALA , IN) observed 1330 UTC 17 November 2019
Temperature: 24.0°C (75°F)
Dewpoint: 22.0°C (72°F) [RH = 89%]
Pressure (altimeter): 29.91 inches Hg (1013.0 mb)
Winds: calm
Visibility: 3 miles ( 5 km)
Ceiling: at least 12,000 feet AGL
Clouds: few clouds at 2000 feet AGL
Weather: BR  (mist)

METAR text: VEAT 171300Z 00000KT 5000 BR FEW020 24/22 Q1013 NOSIG
Conditions at: VEAT (AGARTALA , IN) observed 1300 UTC 17 November 2019
Temperature: 24.0°C (75°F)
Dewpoint: 22.0°C (72°F) [RH = 89%]
Pressure (altimeter): 29.91 inches Hg (1013.0 mb)
Winds: calm
Visibility: 3 miles ( 5 km)
Ceiling: at least 12,000 feet AGL
Clouds: few clouds at 2000 feet AGL
Weather: BR  (mist)

METAR text: VEAT 171230Z 00000KT 5000 BR FEW020 24/22 Q1012 NOSIG
Conditions at: VEAT (AGARTALA , IN) observed 1230 UTC 17 November 2019
Temperature: 24.0°C (75°F)
Dewpoint: 22.0°C (72°F) [RH = 89%]
Pressure (altimeter): 29.88 inches Hg (1012.0 mb)
Winds: calm
Visibility: 3 miles ( 5 km)
Ceiling: at least 12,000 feet AGL
Clouds: few clouds at 2000 feet AGL
Weather: BR  (mist)

METAR text: VEAT 171200Z 00000KT 5000 BR FEW020 25/22 Q1012 NOSIG
Conditions at: VEAT (AGARTALA , IN) observed 1200 UTC 17 November 2019
Temperature: 25.0°C (77°F)
Dewpoint: 22.0°C (72°F) [RH = 83%]
Pressure (altimeter): 29.88 inches Hg (1012.0 mb)
Winds: calm
Visibility: 3 miles ( 5 km)
Ceiling: at least 12,000 feet AGL
Clouds: few clouds at 2000 feet AGL
Weather: BR  (mist)

METAR text: VEAT 171130Z 00000KT 5000 BR FEW020 25/23 Q1012 NOSIG
Conditions at: VEAT (AGARTALA , IN) observed 1130 UTC 17 November 2019
Temperature: 25.0°C (77°F)
Dewpoint: 23.0°C (73°F) [RH = 89%]
Pressure (altimeter): 29.88 inches Hg (1012.0 mb)
Winds: calm
Visibility: 3 miles ( 5 km)
Ceiling: at least 12,000 feet AGL
Clouds: few clouds at 2000 feet AGL
Weather: BR  (mist)

METAR text: VEAT 171100Z 00000KT 6000 FEW020 26/23 Q1012 BECMG 5000 BR
Conditions at: VEAT (AGARTALA , IN) observed 1100 UTC 17 November 2019
Temperature: 26.0°C (79°F)
Dewpoint: 23.0°C (73°F) [RH = 84%]
Pressure (altimeter): 29.88 inches Hg (1012.0 mb)
Winds: calm
Visibility: 4 miles ( 6 km)
Ceiling: at least 12,000 feet AGL
Clouds: few clouds at 2000 feet AGL
Weather: no significant weather observed at this time

METAR text: VEAT 171030Z 00000KT 6000 FEW020 27/21 Q1011 NOSIG
Conditions at: VEAT (AGARTALA , IN) observed 1030 UTC 17 November 2019
Temperature: 27.0°C (81°F)
Dewpoint: 21.0°C (70°F) [RH = 70%]
Pressure (altimeter): 29.85 inches Hg (1011.0 mb)
Winds: calm
Visibility: 4 miles ( 6 km)
Ceiling: at least 12,000 feet AGL
Clouds: few clouds at 2000 feet AGL
Weather: no significant weather observed at this time

METAR text: VEAT 171000Z 00000KT 6000 FEW020 28/21 Q1011 NOSIG
Conditions at: VEAT (AGARTALA , IN) observed 1000 UTC 17 November 2019
Temperature: 28.0°C (82°F)
Dewpoint: 21.0°C (70°F) [RH = 66%]
Pressure (altimeter): 29.85 inches Hg (1011.0 mb)
Winds: calm
Visibility: 4 miles ( 6 km)
Ceiling: at least 12,000 feet AGL
Clouds: few clouds at 2000 feet AGL
Weather: no significant weather observed at this time

METAR text: VEAT 170930Z 00000KT 6000 FEW020 SCT025 29/22 Q1011 NOSIG
Conditions at: VEAT (AGARTALA , IN) observed 0930 UTC 17 November 2019
Temperature: 29.0°C (84°F)
Dewpoint: 22.0°C (72°F) [RH = 66%]
Pressure (altimeter): 29.85 inches Hg (1011.0 mb)
Winds: calm
Visibility: 4 miles ( 6 km)
Ceiling: at least 12,000 feet AGL
Clouds: few clouds at 2000 feet AGL
scattered clouds at 2500 feet AGL
Weather: no significant weather observed at this time

METAR text: VEAT 170900Z 00000KT 6000 FEW020 SCT025 29/21 Q1011 NOSIG
Conditions at: VEAT (AGARTALA , IN) observed 0900 UTC 17 November 2019
Temperature: 29.0°C (84°F)
Dewpoint: 21.0°C (70°F) [RH = 62%]
Pressure (altimeter): 29.85 inches Hg (1011.0 mb)
Winds: calm
Visibility: 4 miles ( 6 km)
Ceiling: at least 12,000 feet AGL
Clouds: few clouds at 2000 feet AGL
scattered clouds at 2500 feet AGL
Weather: no significant weather observed at this time

METAR text: VEAT 170830Z 00000KT 6000 FEW020 SCT025 29/20 Q1011 NOSIG
Conditions at: VEAT (AGARTALA , IN) observed 0830 UTC 17 November 2019
Temperature: 29.0°C (84°F)
Dewpoint: 20.0°C (68°F) [RH = 58%]
Pressure (altimeter): 29.85 inches Hg (1011.0 mb)
Winds: calm
Visibility: 4 miles ( 6 km)
Ceiling: at least 12,000 feet AGL
Clouds: few clouds at 2000 feet AGL
scattered clouds at 2500 feet AGL
Weather: no significant weather observed at this time

METAR text: VEAT 170800Z 00000KT 6000 FEW020 SCT025 29/19 Q1011 NOSIG
Conditions at: VEAT (AGARTALA , IN) observed 0800 UTC 17 November 2019
Temperature: 29.0°C (84°F)
Dewpoint: 19.0°C (66°F) [RH = 55%]
Pressure (altimeter): 29.85 inches Hg (1011.0 mb)
Winds: calm
Visibility: 4 miles ( 6 km)
Ceiling: at least 12,000 feet AGL
Clouds: few clouds at 2000 feet AGL
scattered clouds at 2500 feet AGL
Weather: no significant weather observed at this time

METAR text: VEAT 170730Z 00000KT 6000 FEW020 SCT025 29/19 Q1012 NOSIG
Conditions at: VEAT (AGARTALA , IN) observed 0730 UTC 17 November 2019
Temperature: 29.0°C (84°F)
Dewpoint: 19.0°C (66°F) [RH = 55%]
Pressure (altimeter): 29.88 inches Hg (1012.0 mb)
Winds: calm
Visibility: 4 miles ( 6 km)
Ceiling: at least 12,000 feet AGL
Clouds: few clouds at 2000 feet AGL
scattered clouds at 2500 feet AGL
Weather: no significant weather observed at this time

METAR text: VEAT 170700Z 00000KT 5000 HZ FEW020 SCT025 29/20 Q1012 NOSIG
Conditions at: VEAT (AGARTALA , IN) observed 0700 UTC 17 November 2019
Temperature: 29.0°C (84°F)
Dewpoint: 20.0°C (68°F) [RH = 58%]
Pressure (altimeter): 29.88 inches Hg (1012.0 mb)
Winds: calm
Visibility: 3 miles ( 5 km)
Ceiling: at least 12,000 feet AGL
Clouds: few clouds at 2000 feet AGL
scattered clouds at 2500 feet AGL
Weather: HZ  (haze)

METAR text: VEAT 170630Z 00000KT 5000 HZ FEW020 SCT025 29/21 Q1013 NOSIG
Conditions at: VEAT (AGARTALA , IN) observed 0630 UTC 17 November 2019
Temperature: 29.0°C (84°F)
Dewpoint: 21.0°C (70°F) [RH = 62%]
Pressure (altimeter): 29.91 inches Hg (1013.0 mb)
Winds: calm
Visibility: 3 miles ( 5 km)
Ceiling: at least 12,000 feet AGL
Clouds: few clouds at 2000 feet AGL
scattered clouds at 2500 feet AGL
Weather: HZ  (haze)

METAR text: VEAT 170600Z 00000KT 4000 HZ FEW020 SCT025 29/21 Q1013 BECMG 5000 HZ
Conditions at: VEAT (AGARTALA , IN) observed 0600 UTC 17 November 2019
Temperature: 29.0°C (84°F)
Dewpoint: 21.0°C (70°F) [RH = 62%]
Pressure (altimeter): 29.91 inches Hg (1013.0 mb)
Winds: calm
Visibility: 2.49 miles (4.01 km)
Ceiling: at least 12,000 feet AGL
Clouds: few clouds at 2000 feet AGL
scattered clouds at 2500 feet AGL
Weather: HZ  (haze)

METAR text: VEAT 170530Z 00000KT 4000 HZ FEW020 SCT025 29/21 Q1014 NOSIG
Conditions at: VEAT (AGARTALA , IN) observed 0530 UTC 17 November 2019
Temperature: 29.0°C (84°F)
Dewpoint: 21.0°C (70°F) [RH = 62%]
Pressure (altimeter): 29.94 inches Hg (1014.0 mb)
Winds: calm
Visibility: 2.49 miles (4.01 km)
Ceiling: at least 12,000 feet AGL
Clouds: few clouds at 2000 feet AGL
scattered clouds at 2500 feet AGL
Weather: HZ  (haze)

METAR text: VEAT 170500Z 00000KT 4000 HZ SCT020 29/21 Q1014 NOSIG
Conditions at: VEAT (AGARTALA , IN) observed 0500 UTC 17 November 2019
Temperature: 29.0°C (84°F)
Dewpoint: 21.0°C (70°F) [RH = 62%]
Pressure (altimeter): 29.94 inches Hg (1014.0 mb)
Winds: calm
Visibility: 2.49 miles (4.01 km)
Ceiling: at least 12,000 feet AGL
Clouds: scattered clouds at 2000 feet AGL
Weather: HZ  (haze)

METAR text: VEAT 170430Z 00000KT 4000 HZ FEW020 28/21 Q1014 NOSIG
Conditions at: VEAT (AGARTALA , IN) observed 0430 UTC 17 November 2019
Temperature: 28.0°C (82°F)
Dewpoint: 21.0°C (70°F) [RH = 66%]
Pressure (altimeter): 29.94 inches Hg (1014.0 mb)
Winds: calm
Visibility: 2.49 miles (4.01 km)
Ceiling: at least 12,000 feet AGL
Clouds: few clouds at 2000 feet AGL
Weather: HZ  (haze)

METAR text: VEAT 170400Z 00000KT 4000 HZ FEW020 28/21 Q1015 NOSIG
Conditions at: VEAT (AGARTALA , IN) observed 0400 UTC 17 November 2019
Temperature: 28.0°C (82°F)
Dewpoint: 21.0°C (70°F) [RH = 66%]
Pressure (altimeter): 29.97 inches Hg (1015.0 mb)
Winds: calm
Visibility: 2.49 miles (4.01 km)
Ceiling: at least 12,000 feet AGL
Clouds: few clouds at 2000 feet AGL
Weather: HZ  (haze)

METAR text: VEAT 170330Z 00000KT 3500 HZ NSC 26/21 Q1015 NOSIG
Conditions at: VEAT (AGARTALA , IN) observed 0330 UTC 17 November 2019
Temperature: 26.0°C (79°F)
Dewpoint: 21.0°C (70°F) [RH = 74%]
Pressure (altimeter): 29.97 inches Hg (1015.0 mb)
Winds: calm
Visibility: 2.17 miles (3.49 km)
Ceiling: at least 12,000 feet AGL
Clouds: sky clear below 12,000 feet AGL
Weather: HZ  (haze)

METAR text: VEAT 170300Z 00000KT 3500 HZ NSC 25/21 Q1015 NOSIG
Conditions at: VEAT (AGARTALA , IN) observed 0300 UTC 17 November 2019
Temperature: 25.0°C (77°F)
Dewpoint: 21.0°C (70°F) [RH = 79%]
Pressure (altimeter): 29.97 inches Hg (1015.0 mb)
Winds: calm
Visibility: 2.17 miles (3.49 km)
Ceiling: at least 12,000 feet AGL
Clouds: sky clear below 12,000 feet AGL
Weather: HZ  (haze)

METAR text: VEAT 170230Z 00000KT 3500 BR NSC 23/19 Q1015 NOSIG
Conditions at: VEAT (AGARTALA , IN) observed 0230 UTC 17 November 2019
Temperature: 23.0°C (73°F)
Dewpoint: 19.0°C (66°F) [RH = 78%]
Pressure (altimeter): 29.97 inches Hg (1015.0 mb)
Winds: calm
Visibility: 2.17 miles (3.49 km)
Ceiling: at least 12,000 feet AGL
Clouds: sky clear below 12,000 feet AGL
Weather: BR  (mist)

METAR text: VEAT 170200Z 00000KT 3500 BR NSC 23/19 Q1014 NOSIG
Conditions at: VEAT (AGARTALA , IN) observed 0200 UTC 17 November 2019
Temperature: 23.0°C (73°F)
Dewpoint: 19.0°C (66°F) [RH = 78%]
Pressure (altimeter): 29.94 inches Hg (1014.0 mb)
Winds: calm
Visibility: 2.17 miles (3.49 km)
Ceiling: at least 12,000 feet AGL
Clouds: sky clear below 12,000 feet AGL
Weather: BR  (mist)

METAR text: VEAT 170100Z 00000KT 3000 BR NSC 20/19 Q1013 NOSIG
Conditions at: VEAT (AGARTALA , IN) observed 0100 UTC 17 November 2019
Temperature: 20.0°C (68°F)
Dewpoint: 19.0°C (66°F) [RH = 94%]
Pressure (altimeter): 29.91 inches Hg (1013.0 mb)
Winds: calm
Visibility: 1.86 miles (2.99 km)
Ceiling: at least 12,000 feet AGL
Clouds: sky clear below 12,000 feet AGL
Weather: BR  (mist)

METAR text: VEAT 170000Z 00000KT 3000 BR NSC 18/18 Q1013 NOSIG
Conditions at: VEAT (AGARTALA , IN) observed 0000 UTC 17 November 2019
Temperature: 18.0°C (64°F)
Dewpoint: 18.0°C (64°F) [RH = 100%]
Pressure (altimeter): 29.91 inches Hg (1013.0 mb)
Winds: calm
Visibility: 1.86 miles (2.99 km)
Ceiling: at least 12,000 feet AGL
Clouds: sky clear below 12,000 feet AGL
Weather: BR  (mist)

METAR text: VEAT 161400Z 00000KT 4000 BR NSC 22/21 Q1013 NOSIG
Conditions at: VEAT (AGARTALA , IN) observed 1400 UTC 16 November 2019
Temperature: 22.0°C (72°F)
Dewpoint: 21.0°C (70°F) [RH = 94%]
Pressure (altimeter): 29.91 inches Hg (1013.0 mb)
Winds: calm
Visibility: 2.49 miles (4.01 km)
Ceiling: at least 12,000 feet AGL
Clouds: sky clear below 12,000 feet AGL
Weather: BR  (mist)

METAR text: VEAT 161330Z 00000KT 4000 BR NSC 23/21 Q1013 NOSIG
Conditions at: VEAT (AGARTALA , IN) observed 1330 UTC 16 November 2019
Temperature: 23.0°C (73°F)
Dewpoint: 21.0°C (70°F) [RH = 89%]
Pressure (altimeter): 29.91 inches Hg (1013.0 mb)
Winds: calm
Visibility: 2.49 miles (4.01 km)
Ceiling: at least 12,000 feet AGL
Clouds: sky clear below 12,000 feet AGL
Weather: BR  (mist)

METAR text: VEAT 161300Z 00000KT 4000 BR NSC 23/22 Q1013 NOSIG
Conditions at: VEAT (AGARTALA , IN) observed 1300 UTC 16 November 2019
Temperature: 23.0°C (73°F)
Dewpoint: 22.0°C (72°F) [RH = 94%]
Pressure (altimeter): 29.91 inches Hg (1013.0 mb)
Winds: calm
Visibility: 2.49 miles (4.01 km)
Ceiling: at least 12,000 feet AGL
Clouds: sky clear below 12,000 feet AGL
Weather: BR  (mist)

METAR text: VEAT 161230Z 00000KT 4000 BR NSC 24/21 Q1012 NOSIG
Conditions at: VEAT (AGARTALA , IN) observed 1230 UTC 16 November 2019
Temperature: 24.0°C (75°F)
Dewpoint: 21.0°C (70°F) [RH = 83%]
Pressure (altimeter): 29.88 inches Hg (1012.0 mb)
Winds: calm
Visibility: 2.49 miles (4.01 km)
Ceiling: at least 12,000 feet AGL
Clouds: sky clear below 12,000 feet AGL
Weather: BR  (mist)

METAR text: VEAT 161200Z 00000KT 5000 BR NSC 24/22 Q1012 NOSIG
Conditions at: VEAT (AGARTALA , IN) observed 1200 UTC 16 November 2019
Temperature: 24.0°C (75°F)
Dewpoint: 22.0°C (72°F) [RH = 89%]
Pressure (altimeter): 29.88 inches Hg (1012.0 mb)
Winds: calm
Visibility: 3 miles ( 5 km)
Ceiling: at least 12,000 feet AGL
Clouds: sky clear below 12,000 feet AGL
Weather: BR  (mist)

METAR text: VEAT 161130Z 00000KT 5000 BR NSC 25/23 Q1012 NOSIG
Conditions at: VEAT (AGARTALA , IN) observed 1130 UTC 16 November 2019
Temperature: 25.0°C (77°F)
Dewpoint: 23.0°C (73°F) [RH = 89%]
Pressure (altimeter): 29.88 inches Hg (1012.0 mb)
Winds: calm
Visibility: 3 miles ( 5 km)
Ceiling: at least 12,000 feet AGL
Clouds: sky clear below 12,000 feet AGL
Weather: BR  (mist)

METAR text: VEAT 161100Z 00000KT 6000 NSC 26/23 Q1011 BECMG 5000 BR
Conditions at: VEAT (AGARTALA , IN) observed 1100 UTC 16 November 2019
Temperature: 26.0°C (79°F)
Dewpoint: 23.0°C (73°F) [RH = 84%]
Pressure (altimeter): 29.85 inches Hg (1011.0 mb)
Winds: calm
Visibility: 4 miles ( 6 km)
Ceiling: at least 12,000 feet AGL
Clouds: sky clear below 12,000 feet AGL
Weather: no significant weather observed at this time

METAR text: VEAT 161030Z 00000KT 6000 NSC 28/20 Q1011 NOSIG
Conditions at: VEAT (AGARTALA , IN) observed 1030 UTC 16 November 2019
Temperature: 28.0°C (82°F)
Dewpoint: 20.0°C (68°F) [RH = 62%]
Pressure (altimeter): 29.85 inches Hg (1011.0 mb)
Winds: calm
Visibility: 4 miles ( 6 km)
Ceiling: at least 12,000 feet AGL
Clouds: sky clear below 12,000 feet AGL
Weather: no significant weather observed at this time

METAR text: VEAT 161000Z 00000KT 6000 NSC 28/20 Q1011 NOSIG
Conditions at: VEAT (AGARTALA , IN) observed 1000 UTC 16 November 2019
Temperature: 28.0°C (82°F)
Dewpoint: 20.0°C (68°F) [RH = 62%]
Pressure (altimeter): 29.85 inches Hg (1011.0 mb)
Winds: calm
Visibility: 4 miles ( 6 km)
Ceiling: at least 12,000 feet AGL
Clouds: sky clear below 12,000 feet AGL
Weather: no significant weather observed at this time

METAR text: VEAT 160930Z 00000KT 6000 NSC 29/19 Q1011 NOSIG
Conditions at: VEAT (AGARTALA , IN) observed 0930 UTC 16 November 2019
Temperature: 29.0°C (84°F)
Dewpoint: 19.0°C (66°F) [RH = 55%]
Pressure (altimeter): 29.85 inches Hg (1011.0 mb)
Winds: calm
Visibility: 4 miles ( 6 km)
Ceiling: at least 12,000 feet AGL
Clouds: sky clear below 12,000 feet AGL
Weather: no significant weather observed at this time

METAR text: VEAT 160900Z 00000KT 6000 FEW020 29/19 Q1012 NOSIG
Conditions at: VEAT (AGARTALA , IN) observed 0900 UTC 16 November 2019
Temperature: 29.0°C (84°F)
Dewpoint: 19.0°C (66°F) [RH = 55%]
Pressure (altimeter): 29.88 inches Hg (1012.0 mb)
Winds: calm
Visibility: 4 miles ( 6 km)
Ceiling: at least 12,000 feet AGL
Clouds: few clouds at 2000 feet AGL
Weather: no significant weather observed at this time

Forecast for: VEAT (AGARTALA , IN)
Text: TAF VEAT 172000Z 1721/1806 00000KT 3000 BR FEW020
Forecast period: 2100 UTC 17 November 2019 to 0600 UTC 18 November 2019
Forecast type: FROM: standard forecast or significant change
Winds: calm
Visibility: 1.86 miles (2.99 km)
Ceiling: at least 12,000 feet AGL
Clouds: few clouds at 2000 feet AGL
Weather: BR  (mist)